Aviation Digital Data Service (ADDS)

Output produced by METARs form (0006 UTC 16 February 2019)
found at http://www.aviationweather.gov/metar/data/
 
Forecast for: ZLXY (XIANYANG , CN)
Text: TAF ZLXY 151908Z 1600/1624 06003MPS 3000 HZ NSC TX05/1607Z TNM02/22Z
Forecast period: 0000 UTC 16 February 2019 to 0000 UTC 17 February 2019
Forecast type: FROM: standard forecast or significant change
Winds: from the ENE (60 degrees) at 7 MPH (6 knots; 3.1 m/s)
Visibility: 1.86 miles (2.99 km)
Ceiling: unknown
Clouds: missing
Weather: HZ  (haze)